createdAt,value
2018-09-30T00:00:50.607Z,413.40
2018-09-30T00:03:18.475Z,366.83
2018-09-30T00:05:46.354Z,285.07
2018-09-30T00:08:14.215Z,291.10
2018-09-30T00:10:42.081Z,262.67
2018-09-30T00:13:09.951Z,149.13
2018-09-30T00:15:37.798Z,108.23
2018-09-30T00:18:05.668Z,133.33
2018-09-30T00:20:33.602Z,171.90
2018-09-30T00:23:01.469Z,250.97
2018-09-30T00:25:34.975Z,200.47
2018-09-30T00:28:02.867Z,201.40
2018-09-30T00:30:30.736Z,180.33
2018-09-30T00:32:58.600Z,124.10
2018-09-30T00:35:26.447Z,118.93
2018-09-30T00:37:54.310Z,183.33
2018-09-30T00:40:22.175Z,168.40
2018-09-30T00:42:50.044Z,202.67
2018-09-30T00:45:17.905Z,463.10
2018-09-30T00:47:45.773Z,243.03
2018-09-30T00:50:13.640Z,216.87
2018-09-30T00:52:41.506Z,144.27
2018-09-30T00:55:09.371Z,171.67
2018-09-30T00:57:37.228Z,218.83
2018-09-30T01:00:05.339Z,259.97
2018-09-30T01:02:33.191Z,327.63
2018-09-30T01:05:01.058Z,542.93
2018-09-30T01:07:28.911Z,485.97
2018-09-30T01:09:56.766Z,457.17
2018-09-30T01:12:24.614Z,449.37
2018-09-30T01:14:52.474Z,388.97
2018-09-30T01:17:20.322Z,326.00
2018-09-30T01:19:48.194Z,203.97
2018-09-30T01:22:16.045Z,148.93
2018-09-30T01:24:43.950Z,142.47
2018-09-30T01:27:11.786Z,128.90
2018-09-30T01:29:39.646Z,98.23
2018-09-30T01:32:07.500Z,90.43
2018-09-30T01:34:35.359Z,93.20
2018-09-30T01:37:03.202Z,89.33
2018-09-30T01:39:31.054Z,91.87
2018-09-30T01:41:58.902Z,86.17
2018-09-30T01:44:26.766Z,78.67
2018-09-30T01:46:54.619Z,85.93
2018-09-30T01:49:22.478Z,81.33
2018-09-30T01:51:56.051Z,91.20
2018-09-30T01:54:23.911Z,83.67
2018-09-30T01:56:51.798Z,90.13
2018-09-30T01:59:19.656Z,94.50
2018-09-30T02:01:47.499Z,94.00
2018-09-30T02:04:15.352Z,83.00
2018-09-30T02:06:43.191Z,73.93
2018-09-30T02:09:11.048Z,82.97
2018-09-30T02:11:38.891Z,67.20
2018-09-30T02:14:06.919Z,65.20
2018-09-30T02:16:34.775Z,82.10
2018-09-30T02:19:02.626Z,72.20
2018-09-30T02:21:30.475Z,78.47
2018-09-30T02:23:58.328Z,64.17
2018-09-30T02:26:26.172Z,70.83
2018-09-30T02:28:54.050Z,78.33
2018-09-30T02:31:21.902Z,73.93
2018-09-30T02:33:49.748Z,83.87
2018-09-30T02:36:17.615Z,78.80
2018-09-30T02:38:45.459Z,83.97
2018-09-30T02:41:13.316Z,78.40
2018-09-30T02:43:41.176Z,104.00
2018-09-30T02:46:09.028Z,76.73
2018-09-30T02:48:36.883Z,71.63
2018-09-30T02:51:04.763Z,77.40
2018-09-30T02:53:33.871Z,85.50
2018-09-30T02:56:01.715Z,67.67
2018-09-30T02:58:29.738Z,74.57
2018-09-30T03:00:57.596Z,70.87
2018-09-30T03:03:25.439Z,71.23
2018-09-30T03:05:53.291Z,70.57
2018-09-30T03:08:26.645Z,77.90
2018-09-30T03:10:54.492Z,72.60
2018-09-30T03:13:22.340Z,68.60
2018-09-30T03:15:50.247Z,67.77
2018-09-30T03:18:18.099Z,66.13
2018-09-30T03:20:45.952Z,80.33
2018-09-30T03:23:13.805Z,75.50
2018-09-30T03:25:41.669Z,67.37
2018-09-30T03:28:09.524Z,80.53
2018-09-30T03:30:37.374Z,70.40
2018-09-30T03:33:05.228Z,75.67
2018-09-30T03:35:33.123Z,68.30
2018-09-30T03:38:00.979Z,71.10
2018-09-30T03:40:28.834Z,81.77
2018-09-30T03:42:56.695Z,78.37
2018-09-30T03:45:24.551Z,83.93
2018-09-30T03:47:52.405Z,78.67
2018-09-30T03:50:20.254Z,70.63
2018-09-30T03:52:48.107Z,70.90
2018-09-30T03:55:15.971Z,67.83
2018-09-30T03:57:43.817Z,66.23
2018-09-30T04:00:11.655Z,71.43
2018-09-30T04:02:39.518Z,68.20
2018-09-30T04:05:07.373Z,72.93
2018-09-30T04:07:35.247Z,70.53
2018-09-30T04:10:03.167Z,71.73
2018-09-30T04:12:31.032Z,65.50
2018-09-30T04:14:58.886Z,67.23
2018-09-30T04:17:26.809Z,68.57
2018-09-30T04:19:54.608Z,71.27
2018-09-30T04:22:22.465Z,70.70
2018-09-30T04:24:50.329Z,68.77
2018-09-30T04:27:18.253Z,71.27
2018-09-30T04:29:46.109Z,66.83
2018-09-30T04:32:13.960Z,72.33
2018-09-30T04:34:41.816Z,77.00
2018-09-30T04:37:09.673Z,69.70
2018-09-30T04:39:37.537Z,70.07
2018-09-30T04:42:06.111Z,64.50
2018-09-30T04:44:33.953Z,66.27
2018-09-30T04:47:01.814Z,70.03
2018-09-30T04:49:29.672Z,77.80
2018-09-30T04:51:57.558Z,69.07
2018-09-30T04:54:25.389Z,72.00
2018-09-30T04:56:53.256Z,67.30
2018-09-30T04:59:21.121Z,67.93
2018-09-30T05:01:48.982Z,69.00
2018-09-30T05:04:16.831Z,65.23
2018-09-30T05:06:44.679Z,68.50
2018-09-30T05:09:12.511Z,69.90
2018-09-30T05:11:40.375Z,69.73
2018-09-30T05:14:08.503Z,69.13
2018-09-30T05:16:36.382Z,67.30
2018-09-30T05:19:04.224Z,73.90
2018-09-30T05:21:32.066Z,70.20
2018-09-30T05:23:59.912Z,70.57
2018-09-30T05:26:27.767Z,74.07
2018-09-30T05:28:55.643Z,72.00
2018-09-30T05:31:23.559Z,67.17
2018-09-30T05:33:51.360Z,72.60
2018-09-30T05:36:19.216Z,65.97
2018-09-30T05:38:47.070Z,72.00
2018-09-30T05:41:14.942Z,66.90
2018-09-30T05:43:42.790Z,64.07
2018-09-30T05:46:10.644Z,65.70
2018-09-30T05:48:38.499Z,65.63
2018-09-30T05:51:06.343Z,70.43
2018-09-30T05:53:34.203Z,65.60
2018-09-30T05:56:02.072Z,68.97
2018-09-30T05:58:29.939Z,66.13
2018-09-30T06:00:57.788Z,69.33
2018-09-30T06:03:25.632Z,69.27
2018-09-30T06:05:53.472Z,63.67
2018-09-30T06:08:21.328Z,64.97
2018-09-30T06:10:49.180Z,67.00
2018-09-30T06:13:17.046Z,67.03
2018-09-30T06:15:44.913Z,62.70
2018-09-30T06:18:12.758Z,64.60
2018-09-30T06:20:40.616Z,66.33
2018-09-30T06:23:08.460Z,61.67
2018-09-30T06:25:36.315Z,65.30
2018-09-30T06:28:04.184Z,66.07
2018-09-30T06:30:32.036Z,68.63
2018-09-30T06:32:59.877Z,64.90
2018-09-30T06:35:27.739Z,61.97
2018-09-30T06:37:55.590Z,64.00
2018-09-30T06:40:23.445Z,68.90
2018-09-30T06:42:51.296Z,65.20
2018-09-30T06:45:20.214Z,66.80
2018-09-30T06:47:48.071Z,64.00
2018-09-30T06:50:15.911Z,62.80
2018-09-30T06:52:43.767Z,67.73
2018-09-30T06:55:11.603Z,63.30
2018-09-30T06:57:39.467Z,65.07
2018-09-30T07:00:07.313Z,64.47
2018-09-30T07:02:35.194Z,65.90
2018-09-30T07:05:03.035Z,65.67
2018-09-30T07:07:30.900Z,65.10
2018-09-30T07:09:58.727Z,70.47
2018-09-30T07:12:26.658Z,67.03
2018-09-30T07:14:54.524Z,69.63
2018-09-30T07:17:22.741Z,64.93
2018-09-30T07:19:50.608Z,66.40
2018-09-30T07:22:18.492Z,68.70
2018-09-30T07:24:46.320Z,63.73
2018-09-30T07:27:14.171Z,66.43
2018-09-30T07:29:42.090Z,66.03
2018-09-30T07:32:10.074Z,72.60
2018-09-30T07:34:37.923Z,66.10
2018-09-30T07:37:05.780Z,70.03
2018-09-30T07:39:33.678Z,66.17
2018-09-30T07:42:01.524Z,69.27
2018-09-30T07:44:29.396Z,69.47
2018-09-30T07:46:57.233Z,70.63
2018-09-30T07:49:25.077Z,69.23
2018-09-30T07:51:52.924Z,70.83
2018-09-30T07:54:20.779Z,71.27
2018-09-30T07:56:48.639Z,65.47
2018-09-30T07:59:16.495Z,65.80
2018-09-30T08:01:44.347Z,67.30
2018-09-30T08:04:12.203Z,67.77
2018-09-30T08:06:40.055Z,68.07
2018-09-30T08:09:08.377Z,66.40
2018-09-30T08:11:36.227Z,69.33
2018-09-30T08:14:04.084Z,67.40
2018-09-30T08:16:32.026Z,70.27
2018-09-30T08:18:59.866Z,74.90
2018-09-30T08:21:27.714Z,66.50
2018-09-30T08:23:55.580Z,66.67
2018-09-30T08:26:23.428Z,80.70
2018-09-30T08:28:51.284Z,74.37
2018-09-30T08:31:19.140Z,69.70
2018-09-30T08:33:46.990Z,77.57
2018-09-30T08:36:14.830Z,72.67
2018-09-30T08:38:42.761Z,67.63
2018-09-30T08:41:11.633Z,73.27
2018-09-30T08:43:40.635Z,68.10
2018-09-30T08:46:08.611Z,70.10
2018-09-30T08:48:36.462Z,72.37
2018-09-30T08:51:04.360Z,71.70
2018-09-30T08:53:32.203Z,71.80
2018-09-30T08:56:00.137Z,70.73
2018-09-30T08:58:28.747Z,71.30
2018-09-30T09:00:56.599Z,70.57
2018-09-30T09:03:25.101Z,73.90
2018-09-30T09:05:52.952Z,76.00
2018-09-30T09:08:20.788Z,73.50
2018-09-30T09:10:48.646Z,73.17
2018-09-30T09:13:16.482Z,75.43
2018-09-30T09:15:44.531Z,70.40
2018-09-30T09:18:12.930Z,68.97
2018-09-30T09:20:40.771Z,73.10
2018-09-30T09:23:08.659Z,78.20
2018-09-30T09:25:36.537Z,74.87
2018-09-30T09:28:04.649Z,74.27
2018-09-30T09:30:32.455Z,72.33
2018-09-30T09:33:00.551Z,72.80
2018-09-30T09:35:28.338Z,77.13
2018-09-30T09:37:56.283Z,72.30
2018-09-30T09:40:24.263Z,72.63
2018-09-30T09:42:52.132Z,71.17
2018-09-30T09:45:20.015Z,75.20
2018-09-30T09:47:47.921Z,80.30
2018-09-30T09:50:15.848Z,71.07
2018-09-30T09:52:43.768Z,80.20
2018-09-30T09:55:11.651Z,78.00
2018-09-30T09:57:39.512Z,73.57
2018-09-30T10:00:07.693Z,72.30
2018-09-30T10:02:35.571Z,72.43
2018-09-30T10:05:03.482Z,70.87
2018-09-30T10:07:31.357Z,70.47
2018-09-30T10:09:59.241Z,72.40
2018-09-30T10:12:27.106Z,70.30
2018-09-30T10:14:54.970Z,80.30
2018-09-30T10:17:22.819Z,81.23
2018-09-30T10:19:50.676Z,74.67
2018-09-30T10:22:18.557Z,76.43
2018-09-30T10:24:46.487Z,72.03
2018-09-30T10:27:14.343Z,72.50
2018-09-30T10:29:42.200Z,77.60
2018-09-30T10:32:10.067Z,75.60
2018-09-30T10:34:37.930Z,77.13
2018-09-30T10:37:05.793Z,78.80
2018-09-30T10:39:33.636Z,76.33
2018-09-30T10:42:01.495Z,74.90
2018-09-30T10:44:29.330Z,73.87
2018-09-30T10:46:57.311Z,76.03
2018-09-30T10:49:25.180Z,79.93
2018-09-30T10:51:53.043Z,71.50
2018-09-30T10:54:20.952Z,72.67
2018-09-30T10:56:48.871Z,79.57
2018-09-30T10:59:16.683Z,72.83
2018-09-30T11:01:44.519Z,72.73
2018-09-30T11:04:12.358Z,78.30
2018-09-30T11:06:40.728Z,74.10
2018-09-30T11:09:08.570Z,73.20
2018-09-30T11:11:36.415Z,73.80
2018-09-30T11:14:04.471Z,74.13
2018-09-30T11:16:32.328Z,72.93
2018-09-30T11:19:00.191Z,74.17
2018-09-30T11:21:28.038Z,71.17
2018-09-30T11:23:56.076Z,71.20
2018-09-30T11:26:23.935Z,76.90
2018-09-30T11:28:51.787Z,71.60
2018-09-30T11:31:19.646Z,77.10
2018-09-30T11:33:47.482Z,74.33
2018-09-30T11:36:15.408Z,71.20
2018-09-30T11:38:43.259Z,72.63
2018-09-30T11:41:11.108Z,74.17
2018-09-30T11:43:38.959Z,72.20
2018-09-30T11:46:06.811Z,77.23
2018-09-30T11:48:34.746Z,77.80
2018-09-30T11:51:02.600Z,74.80
2018-09-30T11:53:30.431Z,74.87
2018-09-30T11:55:58.306Z,83.33
2018-09-30T11:58:26.151Z,76.83
2018-09-30T12:00:54.014Z,76.90
2018-09-30T12:03:21.869Z,76.70
2018-09-30T12:05:49.847Z,78.03
2018-09-30T12:08:17.703Z,77.30
2018-09-30T12:10:45.551Z,73.27
2018-09-30T12:13:13.407Z,79.47
2018-09-30T12:15:41.365Z,75.37
2018-09-30T12:18:09.211Z,76.17
2018-09-30T12:20:37.071Z,74.13
2018-09-30T12:23:05.311Z,74.70
2018-09-30T12:25:33.156Z,73.57
2018-09-30T12:28:01.181Z,76.03
2018-09-30T12:30:29.020Z,78.10
2018-09-30T12:32:56.967Z,76.40
2018-09-30T12:35:24.872Z,77.30
2018-09-30T12:37:52.807Z,76.10
2018-09-30T12:40:20.684Z,73.37
2018-09-30T12:42:48.543Z,77.20
2018-09-30T12:45:16.396Z,77.73
2018-09-30T12:47:44.257Z,77.57
2018-09-30T12:50:12.209Z,72.90
2018-09-30T12:52:40.156Z,79.60
2018-09-30T12:55:08.051Z,77.93
2018-09-30T12:57:35.900Z,81.53
2018-09-30T13:00:03.835Z,79.93
2018-09-30T13:02:31.711Z,78.97
2018-09-30T13:04:59.559Z,80.60
2018-09-30T13:07:28.182Z,75.70
2018-09-30T13:09:56.028Z,76.80
2018-09-30T13:12:24.101Z,76.97
2018-09-30T13:14:52.133Z,78.10
2018-09-30T13:17:22.398Z,75.80
2018-09-30T13:19:50.253Z,72.83
2018-09-30T13:22:18.171Z,76.20
2018-09-30T13:24:46.016Z,75.30
2018-09-30T13:27:13.875Z,83.40
2018-09-30T13:29:41.765Z,82.10
2018-09-30T13:32:09.620Z,74.10
2018-09-30T13:34:37.475Z,82.00
2018-09-30T13:37:05.376Z,79.57
2018-09-30T13:39:33.224Z,76.50
2018-09-30T13:42:01.091Z,79.87
2018-09-30T13:44:28.945Z,77.43
2018-09-30T13:46:56.820Z,81.27
2018-09-30T13:49:24.782Z,79.63
2018-09-30T13:51:52.666Z,79.67
2018-09-30T13:54:20.555Z,81.97
2018-09-30T13:56:48.423Z,75.20
2018-09-30T13:59:16.299Z,80.30
2018-09-30T14:01:44.192Z,81.50
2018-09-30T14:04:12.110Z,78.20
2018-09-30T14:06:40.026Z,76.70
2018-09-30T14:09:08.544Z,77.97
2018-09-30T14:11:36.474Z,81.83
2018-09-30T14:14:04.351Z,73.13
2018-09-30T14:16:32.288Z,76.77
2018-09-30T14:19:00.302Z,77.73
2018-09-30T14:21:28.184Z,76.40
2018-09-30T14:23:56.080Z,74.40
2018-09-30T14:26:24.043Z,73.53
2018-09-30T14:28:51.924Z,74.77
2018-09-30T14:31:19.973Z,76.03
2018-09-30T14:33:47.855Z,75.27
2018-09-30T14:36:15.829Z,82.27
2018-09-30T14:38:47.292Z,86.23
2018-09-30T14:41:19.103Z,71.40
2018-09-30T14:43:50.976Z,74.17
2018-09-30T14:46:21.145Z,78.57
2018-09-30T14:48:50.073Z,75.20
2018-09-30T14:51:17.922Z,83.87
2018-09-30T14:53:45.804Z,73.87
2018-09-30T14:56:13.675Z,75.07
2018-09-30T14:58:41.587Z,70.60
2018-09-30T15:01:09.468Z,78.93
2018-09-30T15:03:37.777Z,79.17
2018-09-30T15:06:06.030Z,74.50
2018-09-30T15:08:33.911Z,76.50
2018-09-30T15:11:01.772Z,75.53
2018-09-30T15:13:29.655Z,74.10
2018-09-30T15:15:57.610Z,73.10
2018-09-30T15:18:25.471Z,71.40
2018-09-30T15:20:53.351Z,73.83
2018-09-30T15:23:21.229Z,76.13
2018-09-30T15:25:49.155Z,74.90
2018-09-30T15:28:17.059Z,70.63
2018-09-30T15:30:45.005Z,71.57
2018-09-30T15:33:12.858Z,77.00
2018-09-30T15:35:40.804Z,71.87
2018-09-30T15:38:08.688Z,73.27
2018-09-30T15:40:36.721Z,77.13
2018-09-30T15:43:04.824Z,71.30
2018-09-30T15:45:32.685Z,68.97
2018-09-30T15:48:00.565Z,69.20
2018-09-30T15:50:28.603Z,69.30
2018-09-30T15:52:56.468Z,72.90
2018-09-30T15:55:31.643Z,72.20
2018-09-30T15:57:59.803Z,74.90
2018-09-30T16:00:27.692Z,68.40
2018-09-30T16:02:55.602Z,66.83
2018-09-30T16:05:23.546Z,68.53
2018-09-30T16:07:51.404Z,70.20
2018-09-30T16:10:19.326Z,67.20
2018-09-30T16:12:47.190Z,71.80
2018-09-30T16:15:22.391Z,70.10
2018-09-30T16:17:50.903Z,71.47
2018-09-30T16:20:18.781Z,66.90
2018-09-30T16:22:46.648Z,79.60
2018-09-30T16:25:14.507Z,78.57
2018-09-30T16:27:42.368Z,76.40
2018-09-30T16:30:10.220Z,90.63
2018-09-30T16:32:38.107Z,131.23
2018-09-30T16:35:06.152Z,308.70
2018-09-30T16:37:33.975Z,322.30
2018-09-30T16:40:01.927Z,301.47
2018-09-30T16:42:30.068Z,369.30
2018-09-30T16:44:57.956Z,367.97
2018-09-30T16:47:25.825Z,469.93
2018-09-30T16:49:53.843Z,504.90
2018-09-30T16:52:21.760Z,746.87
2018-09-30T16:54:50.444Z,930.93
2018-09-30T16:57:18.377Z,897.40
2018-09-30T16:59:46.284Z,921.30
2018-09-30T17:02:14.372Z,934.03
2018-09-30T17:04:45.077Z,1152.60
2018-09-30T17:07:13.167Z,926.53
2018-09-30T17:09:41.128Z,1026.33
2018-09-30T17:12:09.005Z,1149.70
2018-09-30T17:14:38.315Z,1231.83
2018-09-30T17:17:10.696Z,1295.43
2018-09-30T17:19:38.580Z,1500.13
2018-09-30T17:22:06.504Z,1437.40
2018-09-30T17:24:35.819Z,1673.17
2018-09-30T17:27:07.993Z,1528.67
2018-09-30T17:29:36.945Z,1543.17
2018-09-30T17:32:04.843Z,1459.57
2018-09-30T17:34:32.699Z,1663.67
2018-09-30T17:37:00.587Z,1685.80
2018-09-30T17:39:28.443Z,1847.37
2018-09-30T17:41:56.299Z,1916.63
2018-09-30T17:44:24.154Z,1731.07
2018-09-30T17:46:52.080Z,1619.33
2018-09-30T17:49:19.939Z,1392.17
2018-09-30T17:51:47.842Z,1304.07
2018-09-30T17:54:15.714Z,1919.63
2018-09-30T17:56:43.579Z,1999.90
2018-09-30T17:59:11.453Z,1999.90
2018-09-30T18:01:39.428Z,1981.50
2018-09-30T18:04:07.437Z,1999.90
2018-09-30T18:06:35.290Z,1975.50
2018-09-30T18:09:03.224Z,1978.97
2018-09-30T18:11:31.096Z,1899.10
2018-09-30T18:14:00.770Z,1986.43
2018-09-30T18:16:28.735Z,1900.93
2018-09-30T18:18:57.153Z,1752.80
2018-09-30T18:21:25.131Z,1665.83
2018-09-30T18:23:53.074Z,1824.57
2018-09-30T18:26:20.899Z,1848.57
2018-09-30T18:28:48.754Z,1718.57
2018-09-30T18:31:16.690Z,1860.90
2018-09-30T18:33:44.539Z,1666.63
2018-09-30T18:36:16.086Z,1496.40
2018-09-30T18:38:44.034Z,1245.97
2018-09-30T18:41:11.892Z,1493.83
2018-09-30T18:43:39.738Z,1464.13
2018-09-30T18:46:07.607Z,1539.20
2018-09-30T18:48:35.544Z,1440.17
2018-09-30T18:51:03.411Z,1345.03
2018-09-30T18:53:31.262Z,1466.63
2018-09-30T18:55:59.208Z,1729.70
2018-09-30T18:58:27.053Z,1500.43
2018-09-30T19:00:54.967Z,1598.47
2018-09-30T19:03:22.899Z,1542.80
2018-09-30T19:05:50.699Z,1287.10
2018-09-30T19:08:18.585Z,1321.13
2018-09-30T19:10:46.467Z,1242.17
2018-09-30T19:13:14.434Z,1206.43
2018-09-30T19:15:42.596Z,1115.50
2018-09-30T19:18:10.467Z,1131.53
2018-09-30T19:20:38.335Z,1087.87
2018-09-30T19:23:06.217Z,1061.60
2018-09-30T19:25:34.075Z,1046.27
2018-09-30T19:28:02.002Z,1074.57
2018-09-30T19:30:29.972Z,1021.33
2018-09-30T19:32:58.026Z,1075.73
2018-09-30T19:35:25.930Z,960.13
2018-09-30T19:37:53.871Z,934.10
2018-09-30T19:40:21.737Z,903.90
2018-09-30T19:42:49.644Z,822.10
2018-09-30T19:45:17.570Z,748.67
2018-09-30T19:47:45.483Z,678.80
2018-09-30T19:50:13.383Z,747.93
2018-09-30T19:52:41.259Z,821.73
2018-09-30T19:55:09.159Z,782.70
2018-09-30T19:57:37.108Z,685.77
2018-09-30T20:00:05.221Z,817.83
2018-09-30T20:02:33.272Z,826.33
2018-09-30T20:05:01.430Z,786.93
2018-09-30T20:07:29.528Z,483.07
2018-09-30T20:09:57.564Z,570.83
2018-09-30T20:12:25.462Z,359.00
2018-09-30T20:14:53.325Z,445.87
2018-09-30T20:17:21.269Z,511.23
2018-09-30T20:19:49.166Z,782.43
2018-09-30T20:22:17.188Z,779.57
2018-09-30T20:24:45.121Z,717.07
2018-09-30T20:27:12.951Z,559.80
2018-09-30T20:29:40.819Z,463.87
2018-09-30T20:32:08.675Z,79.57
2018-09-30T20:34:36.548Z,122.07
2018-09-30T20:37:04.479Z,323.90
2018-09-30T20:39:32.303Z,343.20
2018-09-30T20:42:00.174Z,438.33
2018-09-30T20:44:28.575Z,524.80
2018-09-30T20:46:56.495Z,480.13
2018-09-30T20:49:24.355Z,399.83
2018-09-30T20:51:52.222Z,379.87
2018-09-30T20:54:20.116Z,258.93
2018-09-30T20:56:47.985Z,267.00
2018-09-30T20:59:15.855Z,209.93
2018-09-30T21:01:43.718Z,131.57
2018-09-30T21:04:11.588Z,130.80
2018-09-30T21:06:41.654Z,295.07
2018-09-30T21:09:10.273Z,231.67
2018-09-30T21:11:38.131Z,223.27
2018-09-30T21:14:06.043Z,189.37
2018-09-30T21:16:33.892Z,97.33
2018-09-30T21:19:01.852Z,108.37
2018-09-30T21:21:29.711Z,128.70
2018-09-30T21:23:57.579Z,185.40
2018-09-30T21:26:25.441Z,136.57
2018-09-30T21:28:53.325Z,103.53
2018-09-30T21:31:21.197Z,78.90
2018-09-30T21:33:49.075Z,128.07
2018-09-30T21:36:17.041Z,131.30
2018-09-30T21:38:44.943Z,116.53
2018-09-30T21:41:12.798Z,63.70
2018-09-30T21:43:40.646Z,63.97
2018-09-30T21:46:08.505Z,352.60
2018-09-30T21:48:36.380Z,564.40
2018-09-30T21:51:04.343Z,486.33
2018-09-30T21:53:32.215Z,291.40
2018-09-30T21:56:00.085Z,189.80
2018-09-30T21:58:27.975Z,177.13
2018-09-30T22:01:00.056Z,115.30
2018-09-30T22:03:28.231Z,124.73
2018-09-30T22:05:56.115Z,182.03
2018-09-30T22:08:24.060Z,149.67
2018-09-30T22:10:51.915Z,148.47
2018-09-30T22:13:19.843Z,123.17
2018-09-30T22:15:47.699Z,86.13
2018-09-30T22:18:15.554Z,74.20
2018-09-30T22:20:43.419Z,80.70
2018-09-30T22:23:11.277Z,70.77
2018-09-30T22:25:39.131Z,69.77
2018-09-30T22:28:06.983Z,78.90
2018-09-30T22:30:34.846Z,89.73
2018-09-30T22:33:03.100Z,96.90
2018-09-30T22:35:30.964Z,75.73
2018-09-30T22:37:58.837Z,71.90
2018-09-30T22:40:26.978Z,83.80
2018-09-30T22:42:54.767Z,75.33
2018-09-30T22:45:22.639Z,70.50
2018-09-30T22:47:50.492Z,65.07
2018-09-30T22:50:18.435Z,66.10
2018-09-30T22:52:46.280Z,63.30
2018-09-30T22:55:14.143Z,63.47
2018-09-30T22:57:41.996Z,62.67
2018-09-30T23:00:09.871Z,62.23
2018-09-30T23:02:37.725Z,60.77
2018-09-30T23:05:06.506Z,67.60
2018-09-30T23:07:34.377Z,64.50
2018-09-30T23:10:02.264Z,65.40
2018-09-30T23:12:30.120Z,66.37
2018-09-30T23:14:57.987Z,64.50
2018-09-30T23:17:25.844Z,63.13
2018-09-30T23:19:53.704Z,67.97
2018-09-30T23:22:21.555Z,64.80
2018-09-30T23:24:49.420Z,61.90
2018-09-30T23:27:17.273Z,62.27
2018-09-30T23:29:45.131Z,63.27
2018-09-30T23:32:12.983Z,62.30
2018-09-30T23:34:40.948Z,62.27
2018-09-30T23:37:08.819Z,62.17
2018-09-30T23:39:36.680Z,65.80
2018-09-30T23:42:04.545Z,75.50
2018-09-30T23:44:32.400Z,71.97
2018-09-30T23:47:00.248Z,66.37
2018-09-30T23:49:28.088Z,64.27
2018-09-30T23:51:55.952Z,63.63
2018-09-30T23:54:23.815Z,64.03
2018-09-30T23:56:51.707Z,62.10
2018-09-30T23:59:19.588Z,63.60
